MSC Nuria — 3ESE2 — position and weather

sailwx.info

Track history (hours):
 
Tides and Currents Weather Stations Pressure Air Temp Water Temp Dewpoint Dewpoint Depression Visibility Wind Speed Wind Dir Waves Ship Positions

MSC Nuria

Last reported at 2016-Sep-20 10:23 UTC. Time now 2016-Sep-28 05:10 UTC.
Position N 24°15' E 118°15'.

Length 275 m; draft 10 m.

Type: Ship (hazmat cat A). MMSI: 370272977.

Date/timePositionNaut miles runAvg speedWind from/ knotsBaromVisibWave heightAir tempDewpointWater temp
2016-Sep-20 10:23N 24°15' E 118°15'1810.0
2016-Sep-20 08:33N 24°27' E 118°00'0 0.0
2016-Sep-20 07:33N 24°27' E 118°00'0 0.0
2016-Sep-20 06:33N 24°27' E 118°00'0 0.0
2016-Sep-20 02:31N 24°27' E 118°00'9 3.0
2016-Sep-19 23:33N 24°22' E 118°08'6013.4
2016-Sep-19 19:05N 24°31' E 119°14'  
2016-Sep-16 09:34N 29°47' E 122°16'13 6.5
2016-Sep-16 07:33N 29°53' E 122°03'0 0.0
2016-Sep-15 21:33N 29°53' E 122°03'2 2.4
2016-Sep-15 20:33N 29°55' E 122°05'17 8.6
2016-Sep-15 18:33N 29°44' E 122°21'  
Track history (hours):
 
Tides and Currents Weather Stations Pressure Air Temp Water Temp Dewpoint Dewpoint Depression Visibility Wind Speed Wind Dir Waves Ship Positions

MSC Nuria

Last reported at 2016-Sep-20 10:23 UTC. Time now 2016-Sep-28 05:10 UTC.
Position N 24°15' E 118°15'.

Length 275 m; draft 10 m.

Type: Ship (hazmat cat A). MMSI: 370272977.

Date/timePositionNaut miles runAvg speedWind from/ knotsBaromVisibWave heightAir tempDewpointWater temp
2016-Sep-20 10:23N 24°15' E 118°15'1810.0
2016-Sep-20 08:33N 24°27' E 118°00'0 0.0
2016-Sep-20 07:33N 24°27' E 118°00'0 0.0
2016-Sep-20 06:33N 24°27' E 118°00'0 0.0
2016-Sep-20 02:31N 24°27' E 118°00'9 3.0
2016-Sep-19 23:33N 24°22' E 118°08'6013.4
2016-Sep-19 19:05N 24°31' E 119°14'  
2016-Sep-16 09:34N 29°47' E 122°16'13 6.5
2016-Sep-16 07:33N 29°53' E 122°03'0 0.0
2016-Sep-15 21:33N 29°53' E 122°03'2 2.4
2016-Sep-15 20:33N 29°55' E 122°05'17 8.6
2016-Sep-15 18:33N 29°44' E 122°21'  

Dump ship's entire track history